Time;durP1;ratioP1;P1;durP2;ratioP2;P2;SDS_P1;SDS_P2;PMS_P1;PMS_P2;Temp;Humidity;BMP_temperature;BMP_pressure;BME280_temperature;BME280_humidity;BME280_pressure;Samples;Min_cycle;Max_cycle;Signal;HPM_P1;HPM_P2
2022/08/04 00:01:50;;;;;;;;;1.50;0.50;;;;;26.81;42.95;100632.22;5055791;28;45530;-42
2022/08/04 00:04:38;;;;;;;;;0.75;0.75;;;;;26.80;41.71;100630.53;5093246;27;45250;-44
2022/08/04 00:07:07;;;;;;;;;0.00;0.00;;;;;26.79;42.39;100628.81;5066562;27;45631;-44
2022/08/04 00:09:46;;;;;;;;;0.00;0.00;;;;;26.78;42.85;100629.84;5071929;27;46313;-43
2022/08/04 00:12:15;;;;;;;;;1.00;1.00;;;;;26.78;42.12;100633.34;5073119;28;45517;-44
2022/08/04 00:14:46;;;;;;;;;3.00;0.75;;;;;26.78;42.20;100630.66;5070832;27;45588;-43
2022/08/04 00:17:13;;;;;;;;;4.25;0.00;;;;;26.78;43.07;100624.47;5069604;28;45447;-46
2022/08/04 00:19:44;;;;;;;;;1.00;0.00;;;;;26.78;42.19;100621.78;5073482;27;46147;-45
2022/08/04 00:22:10;;;;;;;;;4.25;1.00;;;;;26.77;43.25;100617.38;5079020;27;45701;-48
2022/08/04 00:24:36;;;;;;;;;0.00;0.00;;;;;26.78;42.10;100619.09;5068978;27;45276;-46
2022/08/04 00:27:02;;;;;;;;;2.50;1.00;;;;;26.78;42.23;100625.28;5073401;28;45418;-45
2022/08/04 00:29:28;;;;;;;;;1.00;0.50;;;;;26.78;41.84;100630.66;5074293;28;45697;-46
2022/08/04 00:31:55;;;;;;;;;2.00;1.50;;;;;26.79;42.26;100623.44;5068963;28;45339;-44
2022/08/04 00:34:23;;;;;;;;;1.50;1.00;;;;;26.78;41.76;100625.28;5067003;27;45426;-44
2022/08/04 00:36:49;;;;;;;;;1.75;1.75;;;;;26.78;41.92;100622.59;5068610;28;45465;-45
2022/08/04 00:39:15;;;;;;;;;2.00;0.75;;;;;26.80;42.04;100617.09;5076464;27;63705;-45
2022/08/04 00:42:02;;;;;;;;;1.00;0.75;;;;;26.82;41.74;100628.53;5071623;28;45323;-46
2022/08/04 00:44:52;;;;;;;;;1.00;1.00;;;;;26.82;41.88;100632.03;5077424;28;45457;-46
2022/08/04 00:47:48;;;;;;;;;2.75;1.50;;;;;26.82;41.48;100632.03;5087585;27;45385;-43
2022/08/04 00:50:35;;;;;;;;;0.00;0.00;;;;;26.81;41.72;100630.38;5081470;27;47089;-44
2022/08/04 00:53:27;;;;;;;;;0.00;0.00;;;;;26.78;41.97;100627.16;5077717;28;45398;-46
2022/08/04 00:56:21;;;;;;;;;1.00;1.00;;;;;26.74;42.18;100626.59;5053701;28;45559;-45
2022/08/04 00:59:22;;;;;;;;;1.25;1.25;;;;;26.72;42.64;100633.97;5077152;28;45524;-46
2022/08/04 01:01:54;;;;;;;;;3.00;2.00;;;;;26.69;42.00;100627.03;5050822;27;45593;-45
2022/08/04 01:04:31;;;;;;;;;1.00;1.00;;;;;26.68;41.67;100624.50;5072986;27;45691;-45
2022/08/04 01:07:10;;;;;;;;;3.00;3.00;;;;;26.70;41.38;100619.81;5074967;28;45369;-46
2022/08/04 01:10:01;;;;;;;;;2.00;1.25;;;;;26.72;42.33;100615.16;5069061;27;45245;-44
2022/08/04 01:12:32;;;;;;;;;1.75;1.75;;;;;26.72;41.55;100623.22;5081906;27;45358;-45
2022/08/04 01:15:18;;;;;;;;;2.00;1.75;;;;;26.71;42.04;100627.72;5073610;27;45691;-45
2022/08/04 01:18:06;;;;;;;;;2.25;1.50;;;;;26.70;42.43;100628.75;5064737;28;45230;-46
2022/08/04 01:21:01;;;;;;;;;2.00;0.25;;;;;26.66;42.39;100621.13;5075856;28;45409;-43
2022/08/04 01:23:49;;;;;;;;;3.25;1.00;;;;;26.61;42.80;100620.69;5074284;28;47345;-47
2022/08/04 01:26:36;;;;;;;;;2.75;2.00;;;;;26.57;42.17;100620.13;5069527;27;45521;-43
2022/08/04 01:29:13;;;;;;;;;1.00;1.00;;;;;26.53;43.93;100616.91;5070083;28;45274;-43
2022/08/04 01:32:00;;;;;;;;;1.50;1.00;;;;;26.48;42.80;100627.25;5078277;27;45378;-44
2022/08/04 01:34:28;;;;;;;;;2.50;0.00;;;;;26.45;43.96;100632.88;5070888;28;46223;-44
2022/08/04 01:36:59;;;;;;;;;1.50;1.00;;;;;26.43;42.79;100628.69;5065808;27;45632;-44
2022/08/04 01:39:41;;;;;;;;;1.00;1.00;;;;;26.37;42.90;100623.91;5071115;28;45446;-45
2022/08/04 01:42:10;;;;;;;;;3.00;0.50;;;;;26.28;44.37;100626.47;5068289;28;45437;-43
2022/08/04 01:44:38;;;;;;;;;0.00;0.00;;;;;26.25;43.45;100626.75;5068371;27;46300;-44
2022/08/04 01:47:04;;;;;;;;;2.00;2.00;;;;;26.22;43.73;100620.84;5066230;28;45535;-45
2022/08/04 01:49:30;;;;;;;;;3.00;1.50;;;;;26.22;43.83;100621.69;5077435;27;46987;-45
2022/08/04 01:51:56;;;;;;;;;1.00;1.00;;;;;26.22;43.06;100612.78;5077447;27;45259;-44
2022/08/04 01:54:22;;;;;;;;;4.25;1.00;;;;;26.20;44.17;100614.78;5073046;27;45307;-47
2022/08/04 01:56:52;;;;;;;;;1.00;1.00;;;;;26.19;43.88;100613.06;5073157;27;46291;-45
2022/08/04 01:59:19;;;;;;;;;1.50;1.50;;;;;26.18;44.57;100616.78;5078144;27;45491;-47
2022/08/04 02:01:45;;;;;;;;;1.00;1.00;;;;;26.14;43.15;100603.63;5067466;28;45533;-47
2022/08/04 02:04:15;;;;;;;;;2.75;1.00;;;;;26.11;44.25;100603.94;5082569;27;45579;-43
2022/08/04 02:07:02;;;;;;;;;4.50;1.00;;;;;26.05;44.91;100609.88;5063882;27;46143;-45
2022/08/04 02:09:39;;;;;;;;;2.25;2.25;;;;;26.04;45.00;100602.81;5066499;28;45472;-43
2022/08/04 02:12:23;;;;;;;;;2.00;1.00;;;;;26.03;44.23;100595.78;5076158;27;45446;-44
2022/08/04 02:15:15;;;;;;;;;4.25;2.00;;;;;26.02;44.90;100601.28;5072505;27;45726;-43
2022/08/04 02:17:55;;;;;;;;;2.00;1.00;;;;;25.99;44.47;100596.19;5079126;28;45274;-44
2022/08/04 02:20:29;;;;;;;;;2.00;1.75;;;;;25.99;44.23;100596.19;5070797;27;45513;-45
2022/08/04 02:22:59;;;;;;;;;1.50;0.00;;;;;25.98;45.56;100600.72;5067013;28;45550;-45
2022/08/04 02:25:27;;;;;;;;;4.75;2.00;;;;;25.99;44.57;100599.72;5073170;27;46305;-48
2022/08/04 02:28:12;;;;;;;;;3.00;1.00;;;;;25.95;44.32;100595.66;5079385;27;45749;-48
2022/08/04 02:30:54;;;;;;;;;2.25;2.00;;;;;25.91;44.71;100591.53;5069524;28;45456;-47
2022/08/04 02:33:24;;;;;;;;;2.00;2.00;;;;;25.89;44.59;100580.97;5072851;27;45554;-50
2022/08/04 02:35:55;;;;;;;;;3.00;2.00;;;;;25.86;44.40;100578.56;5071538;27;45469;-46
2022/08/04 02:38:47;;;;;;;;;4.00;1.00;;;;;25.84;45.33;100585.06;5076164;28;45658;-46
2022/08/04 02:41:15;;;;;;;;;4.25;2.00;;;;;25.81;44.19;100580.81;5071642;27;45427;-47
2022/08/04 02:43:41;;;;;;;;;1.75;1.75;;;;;25.74;44.48;100590.44;5079637;27;45488;-47
2022/08/04 02:46:07;;;;;;;;;7.00;1.50;;;;;25.69;45.72;100590.00;5073865;27;46170;-45
2022/08/04 02:48:33;;;;;;;;;3.25;1.75;;;;;25.67;45.87;100586.63;5069454;27;45373;-45
2022/08/04 02:51:00;;;;;;;;;6.75;2.50;;;;;25.63;45.53;100588.75;5067900;27;45427;-45
2022/08/04 02:53:25;;;;;;;;;1.25;1.25;;;;;25.61;45.52;100592.59;5072397;28;62392;-48
2022/08/04 02:55:51;;;;;;;;;3.00;1.25;;;;;25.58;45.07;100599.06;5079686;27;69057;-50
2022/08/04 02:58:19;;;;;;;;;4.50;2.00;;;;;25.56;44.81;100596.53;5079358;28;45273;-49
2022/08/04 03:00:45;;;;;;;;;2.00;2.00;;;;;25.52;47.13;100605.84;5077771;27;45245;-47
2022/08/04 03:03:39;;;;;;;;;1.00;1.00;;;;;25.51;46.63;100612.16;5066260;28;71556;-50
2022/08/04 03:06:10;;;;;;;;;2.50;1.75;;;;;25.51;45.20;100612.16;5095987;27;46036;-49
2022/08/04 03:08:55;;;;;;;;;1.25;1.25;;;;;25.52;46.15;100610.34;5074894;27;45559;-50
2022/08/04 03:11:45;;;;;;;;;4.75;3.25;;;;;25.51;46.54;100606.81;5066353;28;45505;-48
2022/08/04 03:14:28;;;;;;;;;1.50;1.50;;;;;25.52;45.69;100597.81;5083996;27;45630;-47
2022/08/04 03:17:32;;;;;;;;;2.75;2.00;;;;;25.53;46.67;100604.00;5067260;27;47013;-47
2022/08/04 03:20:34;;;;;;;;;6.00;3.00;;;;;25.53;45.21;100601.31;5075987;28;45420;-48
2022/08/04 03:23:33;;;;;;;;;2.00;0.75;;;;;25.52;46.02;100599.66;5074210;28;45370;-49
2022/08/04 03:26:16;;;;;;;;;5.00;2.25;;;;;25.53;46.22;100601.31;5092687;27;46422;-47
2022/08/04 03:29:00;;;;;;;;;1.00;1.00;;;;;25.54;44.93;100605.69;5075662;27;45282;-46
2022/08/04 03:31:28;;;;;;;;;2.25;2.25;;;;;25.54;45.32;100606.53;5076870;28;45346;-49
2022/08/04 03:34:21;;;;;;;;;4.50;2.00;;;;;25.53;45.74;100596.81;5073606;27;45445;-47
2022/08/04 03:37:23;;;;;;;;;5.25;2.50;;;;;25.47;45.85;100589.34;5067134;27;45169;-50
2022/08/04 03:40:15;;;;;;;;;4.00;2.00;;;;;25.45;45.04;100593.16;5067777;28;46492;-47
2022/08/04 03:42:52;;;;;;;;;1.00;1.00;;;;;25.45;46.39;100594.00;5059797;28;45227;-48
2022/08/04 03:45:52;;;;;;;;;2.25;2.00;;;;;25.47;44.81;100593.84;5067745;28;45358;-52
2022/08/04 03:48:46;;;;;;;;;1.00;1.00;;;;;25.46;44.97;100608.22;5054794;28;45990;-50
2022/08/04 03:54:45;;;;;;;;;2.00;1.00;;;;;25.37;45.04;100599.19;5074113;28;45337;-49
2022/08/04 03:57:39;;;;;;;;;6.00;3.00;;;;;25.38;45.18;100593.72;5077960;27;45298;-48
2022/08/04 04:00:17;;;;;;;;;2.00;1.25;;;;;25.35;45.17;100593.97;5070868;28;45443;-47
2022/08/04 04:03:13;;;;;;;;;3.75;3.00;;;;;25.37;46.20;100596.53;5070467;28;46793;-46
2022/08/04 04:06:16;;;;;;;;;1.75;1.75;;;;;25.30;46.36;100574.84;5073074;28;45572;-45
2022/08/04 04:09:23;;;;;;;;;2.50;2.50;;;;;25.28;46.11;100559.88;5066868;27;45460;-49
2022/08/04 04:12:00;;;;;;;;;2.75;1.00;;;;;25.28;45.82;100559.88;5060416;28;45432;-46
2022/08/04 04:15:05;;;;;;;;;4.00;1.75;;;;;25.26;45.67;100569.88;5066211;27;46349;-50
2022/08/04 04:17:36;;;;;;;;;3.00;1.50;;;;;25.24;45.59;100585.22;5069473;28;45360;-48
2022/08/04 04:20:16;;;;;;;;;3.50;2.25;;;;;25.24;45.69;100598.63;5077492;27;45336;-49
2022/08/04 04:23:09;;;;;;;;;2.50;2.00;;;;;25.21;45.33;100597.06;5062182;28;45506;-50
2022/08/04 04:25:44;;;;;;;;;5.50;2.75;;;;;25.19;45.99;100615.94;5069944;28;45605;-48
2022/08/04 04:28:46;;;;;;;;;3.50;2.00;;;;;25.17;45.56;100625.09;5078896;27;45251;-50
2022/08/04 04:31:37;;;;;;;;;1.00;1.00;;;;;25.13;45.58;100629.91;5071416;27;45442;-47
2022/08/04 04:34:31;;;;;;;;;1.50;1.25;;;;;25.12;45.60;100627.34;5069290;28;45450;-50
2022/08/04 04:37:05;;;;;;;;;3.00;2.00;;;;;25.11;46.14;100629.19;5071100;27;45556;-52
2022/08/04 04:39:45;;;;;;;;;1.00;1.00;;;;;25.12;45.81;100608.59;5072198;27;45485;-48
2022/08/04 04:42:10;;;;;;;;;1.00;1.00;;;;;25.08;45.37;100620.59;5069252;28;45464;-52
2022/08/04 04:44:51;;;;;;;;;2.00;2.00;;;;;25.05;45.58;100626.22;5075115;27;45267;-48
2022/08/04 04:47:32;;;;;;;;;1.25;1.25;;;;;24.98;45.78;100636.63;5068998;28;45772;-48
2022/08/04 04:50:31;;;;;;;;;2.00;1.00;;;;;24.96;46.03;100643.94;5076536;28;45692;-48
2022/08/04 04:53:04;;;;;;;;;7.00;1.50;;;;;24.95;45.64;100661.84;5073566;27;45330;-52
2022/08/04 04:55:34;;;;;;;;;1.75;1.75;;;;;24.94;46.04;100667.34;5071984;27;45411;-47
2022/08/04 04:58:00;;;;;;;;;4.75;1.25;;;;;24.93;46.65;100679.88;5060466;28;45589;-47
2022/08/04 05:01:04;;;;;;;;;5.25;3.00;;;;;24.91;46.92;100673.78;5075198;27;45671;-47
2022/08/04 05:03:40;;;;;;;;;3.50;2.00;;;;;24.85;47.17;100668.16;5075469;27;45501;-50
2022/08/04 05:06:24;;;;;;;;;3.00;2.00;;;;;24.79;46.79;100669.56;5062641;27;45411;-46
2022/08/04 05:09:03;;;;;;;;;4.00;2.75;;;;;24.72;47.22;100671.06;5068921;28;46223;-45
2022/08/04 05:11:50;;;;;;;;;3.75;2.00;;;;;24.58;47.31;100658.91;5073472;27;45335;-45
2022/08/04 05:14:32;;;;;;;;;4.00;2.00;;;;;24.54;47.15;100661.00;5069018;28;45291;-44
2022/08/04 05:17:12;;;;;;;;;5.00;2.00;;;;;24.50;47.61;100656.84;5074573;28;45488;-48
2022/08/04 05:19:52;;;;;;;;;4.00;3.25;;;;;24.48;47.46;100671.34;5095434;27;45492;-45
2022/08/04 05:22:29;;;;;;;;;3.25;3.00;;;;;24.42;49.24;100662.88;5078923;27;45313;-44
2022/08/04 05:25:02;;;;;;;;;3.00;2.00;;;;;24.45;50.04;100661.75;5070355;27;45223;-51
2022/08/04 05:27:34;;;;;;;;;3.50;3.00;;;;;24.51;49.54;100655.88;5069062;28;45411;-48
2022/08/04 05:30:05;;;;;;;;;2.75;2.75;;;;;24.51;49.66;100669.25;5069165;27;48429;-44
2022/08/04 05:33:08;;;;;;;;;4.00;1.25;;;;;24.51;49.24;100674.59;5089021;27;45761;-49
2022/08/04 05:35:36;;;;;;;;;4.50;3.25;;;;;24.49;48.30;100681.06;5070563;28;45656;-52
2022/08/04 05:38:02;;;;;;;;;2.25;2.00;;;;;24.44;49.33;100686.81;5074565;28;45389;-51
2022/08/04 05:40:28;;;;;;;;;3.75;3.75;;;;;24.33;49.51;100686.88;5075610;28;61716;-50
2022/08/04 05:42:54;;;;;;;;;8.25;3.50;;;;;24.28;48.83;100691.81;5079253;27;45942;-47
2022/08/04 05:45:21;;;;;;;;;4.00;4.00;;;;;24.25;49.95;100693.72;5074875;27;45324;-51
2022/08/04 05:47:47;;;;;;;;;3.00;1.00;;;;;24.29;49.32;100685.47;5067622;28;45614;-50
2022/08/04 05:50:13;;;;;;;;;2.25;2.00;;;;;24.30;49.64;100684.50;5072992;28;45269;-48
2022/08/04 05:52:39;;;;;;;;;0.00;0.00;;;;;24.29;49.78;100674.75;5065596;28;73203;-46
2022/08/04 05:55:06;;;;;;;;;5.75;3.75;;;;;24.29;48.72;100674.75;5069013;28;60493;-47
2022/08/04 05:57:32;;;;;;;;;5.00;3.50;;;;;24.25;49.69;100683.03;5070103;28;45601;-46
2022/08/04 05:59:59;;;;;;;;;4.00;4.00;;;;;24.19;48.85;100680.91;5068760;28;75683;-44
2022/08/04 06:02:26;;;;;;;;;7.75;3.00;;;;;24.13;48.76;100667.19;5068717;28;45698;-43
2022/08/04 06:04:52;;;;;;;;;5.25;2.75;;;;;24.12;48.62;100676.22;5087843;27;45288;-43
2022/08/04 06:07:18;;;;;;;;;8.75;4.00;;;;;24.07;49.75;100680.13;5067229;27;45391;-42
2022/08/04 06:09:44;;;;;;;;;2.75;2.25;;;;;24.04;49.02;100690.22;5069115;27;46263;-48
2022/08/04 06:12:55;;;;;;;;;3.00;3.00;;;;;24.07;48.55;100674.75;5064791;28;45352;-44
2022/08/04 06:15:23;;;;;;;;;2.00;2.00;;;;;24.09;48.60;100673.81;5073499;28;45469;-55
2022/08/04 06:17:54;;;;;;;;;3.00;3.00;;;;;24.12;48.54;100687.75;5063974;28;45600;-48
2022/08/04 06:20:19;;;;;;;;;11.25;2.75;;;;;24.11;48.64;100683.38;5079120;27;45401;-45
2022/08/04 06:22:48;;;;;;;;;6.50;4.00;;;;;24.10;48.39;100695.06;5096176;27;45508;-44
2022/08/04 06:25:19;;;;;;;;;7.75;3.00;;;;;24.09;48.19;100679.16;5062620;27;45314;-45
2022/08/04 06:27:44;;;;;;;;;4.00;3.00;;;;;24.07;48.26;100676.59;5076253;27;45546;-44
2022/08/04 06:30:13;;;;;;;;;7.75;3.00;;;;;24.03;48.77;100676.00;5075734;28;69600;-50
2022/08/04 06:32:47;;;;;;;;;5.50;3.00;;;;;24.04;48.82;100680.38;5072048;27;45456;-51
2022/08/04 06:35:15;;;;;;;;;6.25;3.00;;;;;24.05;48.84;100679.41;5077273;27;45183;-52
2022/08/04 06:37:41;;;;;;;;;5.75;3.00;;;;;24.07;48.53;100684.63;5077402;27;45517;-50
2022/08/04 06:40:09;;;;;;;;;4.75;3.75;;;;;24.09;48.36;100679.16;5080812;27;46319;-51
2022/08/04 06:42:34;;;;;;;;;2.25;2.00;;;;;24.12;48.78;100679.72;5069936;27;45462;-52
2022/08/04 06:45:00;;;;;;;;;4.00;3.50;;;;;24.16;48.66;100688.34;5080284;27;62649;-51
2022/08/04 06:47:26;;;;;;;;;2.75;2.00;;;;;24.17;48.41;100682.00;5075198;27;56425;-51
2022/08/04 06:49:54;;;;;;;;;3.50;1.25;;;;;24.17;48.41;100690.88;5071595;27;60807;-51
2022/08/04 06:52:19;;;;;;;;;3.00;3.00;;;;;24.18;47.73;100695.25;5061015;28;45458;-50
2022/08/04 06:54:50;;;;;;;;;4.75;4.00;;;;;24.21;47.92;100703.00;5079665;27;45479;-52
2022/08/04 06:57:19;;;;;;;;;3.25;2.50;;;;;24.27;47.59;100704.31;5079693;28;45301;-51
2022/08/04 06:59:48;;;;;;;;;3.00;3.00;;;;;24.30;47.57;100709.41;5080489;27;46313;-51
2022/08/04 07:02:17;;;;;;;;;4.50;3.00;;;;;24.34;47.43;100704.63;5058937;28;45366;-52
2022/08/04 07:04:43;;;;;;;;;2.50;2.00;;;;;24.37;47.57;100712.41;5062851;28;45291;-53
2022/08/04 07:07:10;;;;;;;;;2.75;2.50;;;;;24.38;47.29;100712.28;5074840;27;45188;-53
2022/08/04 07:09:36;;;;;;;;;4.25;1.50;;;;;24.38;47.62;100717.63;5078823;28;46200;-51
2022/08/04 07:12:02;;;;;;;;;1.50;1.00;;;;;24.42;47.72;100720.88;5080780;27;45264;-50
2022/08/04 07:14:30;;;;;;;;;1.00;0.75;;;;;24.44;47.11;100722.44;5070215;28;45409;-53
2022/08/04 07:16:55;;;;;;;;;1.00;1.00;;;;;24.47;47.33;100717.78;5080635;27;45330;-53
2022/08/04 07:19:21;;;;;;;;;1.00;1.00;;;;;24.49;47.14;100719.38;5095000;27;48164;-49
2022/08/04 07:21:47;;;;;;;;;4.00;1.00;;;;;24.53;47.15;100719.97;5062588;28;45879;-52
2022/08/04 07:24:12;;;;;;;;;5.25;2.00;;;;;24.59;47.47;100727.47;5066540;27;53013;-52
2022/08/04 07:26:37;;;;;;;;;3.00;0.75;;;;;24.64;46.81;100726.09;5078338;27;67259;-51
2022/08/04 07:29:03;;;;;;;;;2.25;2.00;;;;;24.74;47.14;100728.00;5061905;28;46986;-50
2022/08/04 07:31:29;;;;;;;;;2.00;1.00;;;;;24.80;47.18;100732.78;5078729;28;45563;-51
2022/08/04 07:33:55;;;;;;;;;4.75;1.50;;;;;24.86;46.97;100734.94;5078883;27;45451;-54
2022/08/04 07:36:20;;;;;;;;;3.50;1.25;;;;;24.86;46.77;100737.63;5078868;27;48112;-53
2022/08/04 07:38:46;;;;;;;;;3.00;1.00;;;;;24.90;46.81;100732.84;5075911;28;46219;-53
2022/08/04 07:41:11;;;;;;;;;1.75;1.75;;;;;24.92;46.98;100731.72;5075304;27;45346;-50
2022/08/04 07:43:37;;;;;;;;;1.00;1.00;;;;;24.97;46.67;100740.19;5078538;27;45440;-49
2022/08/04 07:46:03;;;;;;;;;2.50;1.25;;;;;25.03;46.99;100746.84;5072242;27;45458;-52
2022/08/04 07:48:28;;;;;;;;;4.25;2.50;;;;;25.07;46.60;100747.41;5079257;27;46249;-52
2022/08/04 07:50:54;;;;;;;;;4.00;2.00;;;;;25.12;46.98;100745.19;5066422;27;70325;-53
2022/08/04 07:53:20;;;;;;;;;3.50;1.50;;;;;25.15;46.96;100743.06;5075180;28;55066;-53
2022/08/04 07:55:45;;;;;;;;;5.75;3.00;;;;;25.18;47.68;100755.38;5079960;27;45426;-51
2022/08/04 07:58:11;;;;;;;;;7.75;1.00;;;;;25.19;47.84;100752.53;5074242;28;51391;-52
2022/08/04 08:00:36;;;;;;;;;1.00;1.00;;;;;25.19;47.24;100749.84;5078444;28;45343;-52
2022/08/04 08:03:02;;;;;;;;;2.00;2.00;;;;;25.15;47.40;100751.13;5078930;27;45222;-53
2022/08/04 08:05:28;;;;;;;;;1.50;1.50;;;;;25.14;47.49;100753.91;5077935;28;45488;-52
2022/08/04 08:07:55;;;;;;;;;9.00;5.25;;;;;25.13;47.76;100771.00;5077743;28;46292;-50
2022/08/04 08:10:22;;;;;;;;;8.00;3.75;;;;;25.13;47.46;100785.22;5078361;28;45713;-52
2022/08/04 08:12:49;;;;;;;;;2.50;2.00;;;;;25.16;47.15;100784.09;5079392;28;45272;-51
2022/08/04 08:15:15;;;;;;;;;1.25;1.25;;;;;25.17;47.07;100767.88;5078378;27;45492;-54
2022/08/04 08:17:40;;;;;;;;;3.25;1.50;;;;;25.14;46.91;100760.16;5092727;27;69427;-51
2022/08/04 08:20:07;;;;;;;;;4.00;1.00;;;;;25.10;47.42;100768.56;5076568;28;69996;-53
2022/08/04 08:22:33;;;;;;;;;2.75;1.00;;;;;25.05;47.03;100776.16;5055602;28;45269;-49
2022/08/04 08:24:58;;;;;;;;;7.50;2.25;;;;;25.02;46.77;100771.94;5073994;27;45512;-51
2022/08/04 08:27:24;;;;;;;;;4.25;1.50;;;;;25.01;46.87;100772.91;5078594;28;61205;-52
2022/08/04 08:29:49;;;;;;;;;5.00;2.75;;;;;25.06;47.61;100785.91;5090706;27;45358;-53
2022/08/04 08:32:15;;;;;;;;;4.25;3.00;;;;;25.06;47.40;100791.25;5077000;27;55604;-53
2022/08/04 08:34:41;;;;;;;;;3.50;3.00;;;;;25.06;47.69;100793.94;5077211;27;60191;-53
2022/08/04 08:37:29;;;;;;;;;6.25;2.25;;;;;25.06;48.48;100788.59;5076426;28;45991;-52
2022/08/04 08:40:17;;;;;;;;;9.00;3.25;;;;;25.08;48.15;100773.22;5078131;27;45359;-51
2022/08/04 08:43:17;;;;;;;;;2.00;2.00;;;;;25.06;48.35;100770.69;5077292;27;45259;-48
2022/08/04 08:46:13;;;;;;;;;2.25;2.00;;;;;25.03;48.48;100762.91;5065117;27;45469;-52
2022/08/04 08:48:53;;;;;;;;;4.00;3.00;;;;;25.04;48.41;100777.13;5076967;28;45304;-51
2022/08/04 08:51:54;;;;;;;;;4.75;2.00;;;;;25.06;48.64;100785.91;5068271;27;45297;-52
2022/08/04 08:54:47;;;;;;;;;4.50;2.00;;;;;25.09;48.67;100789.16;5081452;28;45354;-50
2022/08/04 08:57:16;;;;;;;;;4.00;2.25;;;;;25.10;48.52;100790.84;5072530;28;45501;-53
2022/08/04 08:59:56;;;;;;;;;6.00;1.25;;;;;25.12;47.97;100788.88;5081274;28;45675;-52
2022/08/04 09:02:21;;;;;;;;;5.50;1.50;;;;;25.13;48.48;100779.88;5082475;27;45312;-50
2022/08/04 09:04:59;;;;;;;;;3.00;2.00;;;;;25.15;48.12;100772.53;5079741;27;45702;-50
2022/08/04 09:07:37;;;;;;;;;3.00;2.75;;;;;25.16;48.18;100770.69;5080290;27;45454;-49
2022/08/04 09:10:20;;;;;;;;;7.75;3.75;;;;;25.16;48.52;100774.25;5081344;27;46260;-48
2022/08/04 09:12:52;;;;;;;;;5.50;2.50;;;;;25.18;48.50;100776.78;5077975;28;45349;-48
2022/08/04 09:15:23;;;;;;;;;4.50;3.00;;;;;25.18;48.69;100787.50;5080994;27;45430;-48
2022/08/04 09:17:53;;;;;;;;;18.50;14.75;;;;;25.19;48.66;100792.69;5080860;27;45448;-50
2022/08/04 09:20:31;;;;;;;;;9.50;7.50;;;;;25.24;48.43;100784.28;5080074;27;46207;-50
2022/08/04 09:23:37;;;;;;;;;5.00;5.00;;;;;25.29;48.91;100787.44;5063458;28;45943;-52
2022/08/04 09:26:15;;;;;;;;;2.00;2.00;;;;;25.32;47.99;100792.53;5076835;27;45504;-53
2022/08/04 09:29:13;;;;;;;;;1.00;1.00;;;;;25.41;47.83;100806.06;5077037;27;45427;-53
2022/08/04 09:32:09;;;;;;;;;1.50;1.00;;;;;25.52;48.18;100814.84;5052685;27;46053;-50
2022/08/04 09:35:15;;;;;;;;;1.00;1.00;;;;;25.61;47.45;100821.22;5084638;27;45481;-51
2022/08/04 09:37:43;;;;;;;;;2.50;1.00;;;;;25.71;47.25;100810.50;5064015;28;45598;-50
2022/08/04 09:40:32;;;;;;;;;4.00;2.25;;;;;25.75;47.48;100812.78;5080803;27;45169;-47
2022/08/04 09:43:08;;;;;;;;;4.25;1.75;;;;;25.83;47.43;100816.59;5078730;27;46454;-51
2022/08/04 09:45:39;;;;;;;;;0.75;0.75;;;;;25.91;47.21;100806.88;5077626;28;45504;-47
2022/08/04 09:48:09;;;;;;;;;2.50;1.00;;;;;26.03;47.15;100813.00;5081314;27;45250;-49
2022/08/04 09:50:40;;;;;;;;;2.75;1.00;;;;;26.18;47.08;100810.75;5088831;27;45574;-51
2022/08/04 09:53:12;;;;;;;;;2.00;1.00;;;;;26.30;46.81;100811.47;5075707;28;47176;-50
2022/08/04 09:55:45;;;;;;;;;2.50;1.00;;;;;26.39;46.81;100804.38;5079640;27;45236;-53
2022/08/04 09:58:32;;;;;;;;;3.00;2.00;;;;;26.48;46.32;100801.69;5080461;27;45413;-48
2022/08/04 10:01:07;;;;;;;;;1.00;1.00;;;;;26.56;46.17;100803.66;5080953;27;45269;-49
2022/08/04 10:03:35;;;;;;;;;1.75;1.00;;;;;26.70;46.37;100802.38;5080651;27;45729;-48
2022/08/04 10:06:48;;;;;;;;;1.00;1.00;;;;;26.78;45.70;100801.66;5063256;27;45411;-49
2022/08/04 10:09:25;;;;;;;;;4.75;2.00;;;;;26.80;45.96;100791.63;5039080;28;45558;-51
2022/08/04 10:12:00;;;;;;;;;0.00;0.00;;;;;26.79;45.36;100806.03;5039229;28;45445;-49
2022/08/04 10:14:31;;;;;;;;;4.00;1.00;;;;;26.82;46.00;100805.75;5056847;28;46364;-52
2022/08/04 10:17:12;;;;;;;;;1.00;0.00;;;;;26.83;45.75;100799.41;5079612;27;45193;-53
2022/08/04 10:19:39;;;;;;;;;1.75;1.00;;;;;26.77;46.11;100803.47;5079493;28;45331;-50
2022/08/04 10:22:08;;;;;;;;;2.75;2.00;;;;;26.69;46.29;100798.00;5096225;27;60434;-54
2022/08/04 10:24:51;;;;;;;;;2.00;0.25;;;;;26.57;45.96;100799.13;5077348;27;47506;-49
2022/08/04 10:27:33;;;;;;;;;2.75;1.00;;;;;26.49;46.71;100802.56;5077686;27;45373;-49
2022/08/04 10:30:10;;;;;;;;;0.50;0.50;;;;;26.43;46.89;100801.25;5058689;28;45357;-52
2022/08/04 10:33:07;;;;;;;;;1.00;0.75;;;;;26.45;47.51;100798.44;5076485;28;45360;-50
2022/08/04 10:35:37;;;;;;;;;1.00;1.00;;;;;27.12;46.31;100788.53;5079421;27;46135;-54
2022/08/04 10:38:18;;;;;;;;;0.50;0.50;;;;;28.01;44.71;100801.38;5079881;28;45395;-53
2022/08/04 10:40:59;;;;;;;;;1.00;0.00;;;;;28.80;43.67;100804.19;5078772;27;45268;-54
2022/08/04 10:43:34;;;;;;;;;0.00;0.00;;;;;29.67;42.27;100804.09;5079709;28;45396;-54
2022/08/04 10:46:15;;;;;;;;;2.00;0.00;;;;;30.67;39.65;100799.47;5075322;27;45520;-53
2022/08/04 10:48:43;;;;;;;;;0.00;0.00;;;;;31.42;37.65;100792.00;5078506;27;45298;-57
2022/08/04 10:51:35;;;;;;;;;0.00;0.00;;;;;31.93;38.34;100781.56;5066553;27;45342;-56
2022/08/04 10:54:12;;;;;;;;;2.00;0.00;;;;;32.14;35.78;100786.34;5070306;28;45577;-56
2022/08/04 10:56:43;;;;;;;;;3.25;1.00;;;;;32.10;37.46;100779.59;5093726;27;48848;-55
2022/08/04 10:59:57;;;;;;;;;1.25;1.00;;;;;32.07;36.50;100782.66;5079774;27;45446;-56
2022/08/04 11:02:36;;;;;;;;;0.00;0.00;;;;;32.46;35.50;100784.34;5070672;27;45264;-57
2022/08/04 11:05:36;;;;;;;;;1.00;1.00;;;;;33.20;35.00;100780.03;5079218;28;45539;-55
2022/08/04 11:08:04;;;;;;;;;2.00;0.00;;;;;33.96;34.37;100779.66;5080339;27;47008;-49
2022/08/04 11:10:34;;;;;;;;;0.75;0.00;;;;;34.54;31.74;100774.09;5079269;27;45508;-53
2022/08/04 11:13:04;;;;;;;;;2.75;2.00;;;;;35.03;32.84;100772.34;5077622;27;45354;-49
2022/08/04 11:15:37;;;;;;;;;2.00;0.50;;;;;35.30;30.81;100781.47;5079270;27;45289;-51
2022/08/04 11:18:06;;;;;;;;;0.00;0.00;;;;;35.50;29.98;100779.66;5078860;27;46286;-54
2022/08/04 11:20:42;;;;;;;;;3.50;1.00;;;;;35.82;30.61;100782.69;5076197;27;45338;-57
2022/08/04 11:23:11;;;;;;;;;1.00;0.50;;;;;36.20;30.37;100784.84;5080124;27;45396;-49
2022/08/04 11:25:55;;;;;;;;;1.00;0.75;;;;;36.58;30.43;100783.34;5075342;28;45518;-48
2022/08/04 11:28:41;;;;;;;;;1.00;0.00;;;;;36.82;28.73;100782.69;5076067;27;45434;-56
2022/08/04 11:31:13;;;;;;;;;2.00;0.00;;;;;37.02;29.42;100777.16;5069195;28;45733;-48
2022/08/04 11:34:03;;;;;;;;;2.00;0.00;;;;;37.16;27.62;100779.84;5076971;28;45466;-52
2022/08/04 11:36:45;;;;;;;;;0.00;0.00;;;;;37.28;29.28;100788.25;5077827;28;45490;-47
2022/08/04 11:39:14;;;;;;;;;1.75;0.25;;;;;37.49;28.87;100793.38;5076903;28;45475;-48
2022/08/04 11:41:57;;;;;;;;;1.00;0.00;;;;;37.78;28.16;100789.22;5075729;27;45380;-53
2022/08/04 11:44:27;;;;;;;;;0.50;0.50;;;;;38.06;26.96;100792.63;5079191;27;45276;-54
2022/08/04 11:46:59;;;;;;;;;0.00;0.00;;;;;38.23;25.91;100781.97;5070707;28;45597;-62
2022/08/04 11:49:35;;;;;;;;;2.25;2.25;;;;;38.37;26.29;100780.81;5092293;27;45220;-51
2022/08/04 11:52:02;;;;;;;;;1.75;1.50;;;;;38.51;26.29;100782.38;5060371;27;45232;-52
2022/08/04 11:54:29;;;;;;;;;2.75;0.75;;;;;38.72;25.27;100783.00;5063025;27;45406;-54
2022/08/04 11:56:55;;;;;;;;;1.25;1.00;;;;;38.87;25.53;100796.34;5078738;28;45299;-54
2022/08/04 11:59:22;;;;;;;;;0.75;0.75;;;;;39.05;25.87;100790.88;5079719;27;46378;-51
2022/08/04 12:02:13;;;;;;;;;3.75;2.00;;;;;38.92;26.62;100788.25;5078603;28;45674;-53
2022/08/04 12:04:56;;;;;;;;;2.25;1.00;;;;;38.55;27.07;100788.22;5079902;27;45397;-53
2022/08/04 12:07:40;;;;;;;;;3.50;1.00;;;;;38.31;26.34;100779.81;5079752;27;45342;-56
2022/08/04 12:10:23;;;;;;;;;4.00;2.75;;;;;38.24;27.37;100783.66;5067762;28;45405;-56